createdAt,value
2018-11-11T00:01:41.119Z,8.80
2018-11-11T00:06:45.259Z,8.47
2018-11-11T00:11:49.038Z,8.43
2018-11-11T00:16:53.638Z,7.63
2018-11-11T00:21:57.499Z,8.20
2018-11-11T00:27:01.441Z,8.33
2018-11-11T00:32:05.031Z,7.97
2018-11-11T00:37:09.186Z,8.27
2018-11-11T00:42:12.790Z,8.27
2018-11-11T00:47:16.388Z,7.90
2018-11-11T00:52:20.241Z,8.30
2018-11-11T00:57:24.068Z,7.90
2018-11-11T01:02:27.969Z,7.40
2018-11-11T01:07:31.482Z,7.53
2018-11-11T01:12:35.002Z,8.43
2018-11-11T01:17:39.139Z,9.43
2018-11-11T01:22:43.139Z,8.80
2018-11-11T01:27:46.550Z,8.13
2018-11-11T01:32:50.087Z,8.87
2018-11-11T01:37:53.750Z,8.87
2018-11-11T01:42:57.887Z,8.83
2018-11-11T01:48:01.631Z,8.80
2018-11-11T01:53:05.974Z,9.13
2018-11-11T01:58:10.022Z,9.20
2018-11-11T02:03:13.740Z,9.10
2018-11-11T02:08:17.587Z,9.20
2018-11-11T02:13:21.630Z,9.43
2018-11-11T02:18:25.726Z,9.37
2018-11-11T02:23:29.575Z,8.97
2018-11-11T02:28:33.321Z,9.23
2018-11-11T02:33:37.419Z,9.70
2018-11-11T02:38:41.235Z,9.90
2018-11-11T02:43:45.077Z,9.77
2018-11-11T02:48:49.272Z,9.53
2018-11-11T02:53:52.839Z,10.37
2018-11-11T02:58:56.522Z,11.13
2018-11-11T03:04:00.075Z,10.60
2018-11-11T03:09:04.905Z,10.13
2018-11-11T03:14:08.579Z,9.60
2018-11-11T03:19:12.499Z,9.13
2018-11-11T03:24:16.207Z,9.47
2018-11-11T03:29:19.822Z,9.50
2018-11-11T03:34:23.737Z,10.53
2018-11-11T03:39:27.471Z,9.87
2018-11-11T03:44:31.223Z,10.83
2018-11-11T03:49:34.904Z,10.47
2018-11-11T03:54:38.764Z,9.80
2018-11-11T03:59:42.115Z,9.77
2018-11-11T04:04:45.522Z,10.00
2018-11-11T04:09:49.533Z,15.73
2018-11-11T04:14:53.330Z,14.73
2018-11-11T04:19:56.931Z,11.57
2018-11-11T04:25:01.493Z,11.33
2018-11-11T04:30:06.684Z,10.72
2018-11-11T04:35:10.439Z,10.83
2018-11-11T04:40:14.493Z,11.43
2018-11-11T04:45:18.157Z,10.50
2018-11-11T04:50:21.955Z,10.68
2018-11-11T04:55:25.815Z,11.00
2018-11-11T05:00:29.937Z,11.53
2018-11-11T05:05:33.759Z,14.53
2018-11-11T05:10:37.670Z,12.37
2018-11-11T05:15:41.823Z,11.03
2018-11-11T05:20:45.913Z,11.13
2018-11-11T05:25:49.903Z,11.77
2018-11-11T05:30:54.002Z,10.47
2018-11-11T05:35:58.228Z,10.57
2018-11-11T05:41:02.141Z,10.80
2018-11-11T05:46:06.217Z,11.63
2018-11-11T05:51:10.230Z,11.70
2018-11-11T05:56:14.306Z,11.93
2018-11-11T06:01:18.284Z,10.67
2018-11-11T06:06:22.472Z,11.90
2018-11-11T06:11:26.165Z,11.57
2018-11-11T06:16:30.010Z,11.13
2018-11-11T06:21:33.576Z,11.47
2018-11-11T06:26:37.156Z,11.90
2018-11-11T06:31:40.570Z,11.90
2018-11-11T06:36:43.885Z,12.43
2018-11-11T06:41:47.225Z,12.03
2018-11-11T06:46:50.746Z,13.40
2018-11-11T06:51:54.687Z,12.30
2018-11-11T06:56:58.643Z,12.03
2018-11-11T07:02:02.365Z,11.40
2018-11-11T07:07:06.201Z,12.70
2018-11-11T07:12:09.874Z,11.47
2018-11-11T07:17:13.470Z,11.73
2018-11-11T07:22:17.351Z,12.03
2018-11-11T07:27:20.913Z,11.90
2018-11-11T07:32:24.510Z,11.37
2018-11-11T07:37:28.055Z,11.33
2018-11-11T07:42:32.274Z,11.60
2018-11-11T07:47:35.833Z,11.50
2018-11-11T07:52:39.501Z,12.00
2018-11-11T07:57:43.283Z,11.18
2018-11-11T08:02:47.570Z,11.30
2018-11-11T08:13:33.995Z,11.23
2018-11-11T08:18:37.748Z,11.87
2018-11-11T08:23:41.236Z,11.40
2018-11-11T08:28:45.499Z,11.83
2018-11-11T08:33:49.440Z,12.97
2018-11-11T08:38:53.191Z,11.80
2018-11-11T08:43:56.725Z,11.43
2018-11-11T08:49:00.371Z,11.73
2018-11-11T08:54:04.355Z,11.87
2018-11-11T08:59:07.823Z,11.47
2018-11-11T09:04:11.347Z,11.00
2018-11-11T09:09:14.814Z,11.30
2018-11-11T09:14:18.635Z,10.97
2018-11-11T09:19:22.626Z,10.77
2018-11-11T09:24:27.738Z,11.97
2018-11-11T09:29:31.652Z,10.93
2018-11-11T09:34:35.541Z,10.20
2018-11-11T09:39:39.289Z,10.37
2018-11-11T09:44:43.152Z,10.00
2018-11-11T09:49:46.998Z,11.23
2018-11-11T09:54:50.673Z,10.20
2018-11-11T09:59:54.509Z,10.47
2018-11-11T10:05:10.276Z,9.83
2018-11-11T10:10:50.612Z,9.78
2018-11-11T10:16:34.789Z,9.33
2018-11-11T10:23:51.443Z,8.90
2018-11-11T10:29:05.517Z,9.20
2018-11-11T10:34:18.599Z,8.63
2018-11-11T10:39:36.884Z,9.33
2018-11-11T10:44:47.093Z,9.43
2018-11-11T10:49:53.708Z,8.43
2018-11-11T10:54:57.350Z,9.40
2018-11-11T11:00:01.227Z,10.10
2018-11-11T11:05:09.893Z,10.00
2018-11-11T11:10:13.957Z,8.83
2018-11-11T11:15:19.099Z,8.77
2018-11-11T11:20:22.968Z,10.82
2018-11-11T11:25:27.040Z,9.10
2018-11-11T11:30:30.738Z,10.07
2018-11-11T11:35:34.576Z,8.37
2018-11-11T11:40:37.961Z,7.70
2018-11-11T11:45:41.342Z,8.35
2018-11-11T11:50:44.888Z,7.92
2018-11-11T11:55:48.742Z,7.60
2018-11-11T12:00:52.362Z,7.25
2018-11-11T12:05:56.111Z,6.25
2018-11-11T12:12:10.334Z,6.50
2018-11-11T12:17:14.157Z,6.37
2018-11-11T12:22:17.843Z,5.50
2018-11-11T12:27:21.561Z,5.17
2018-11-11T12:32:25.098Z,4.80
2018-11-11T12:37:28.742Z,4.22
2018-11-11T12:42:32.226Z,4.20
2018-11-11T12:47:37.128Z,4.47
2018-11-11T12:52:40.730Z,4.15
2018-11-11T12:57:44.293Z,4.17
2018-11-11T13:02:47.600Z,4.25
2018-11-11T13:07:50.978Z,3.98
2018-11-11T13:12:54.272Z,3.87
2018-11-11T13:17:58.418Z,4.10
2018-11-11T13:23:03.448Z,3.50
2018-11-11T13:28:07.201Z,3.42
2018-11-11T13:33:10.862Z,3.90
2018-11-11T13:38:14.718Z,3.08
2018-11-11T13:43:18.850Z,2.70
2018-11-11T13:48:22.534Z,2.87
2018-11-11T13:53:26.292Z,2.27
2018-11-11T13:58:30.602Z,2.30
2018-11-11T14:03:34.390Z,2.57
2018-11-11T14:08:38.108Z,2.10
2018-11-11T14:13:41.609Z,2.27
2018-11-11T14:18:45.332Z,2.60
2018-11-11T14:23:48.649Z,2.07
2018-11-11T14:28:52.973Z,2.40
2018-11-11T14:33:56.785Z,2.60
2018-11-11T14:39:00.442Z,2.40
2018-11-11T14:44:03.912Z,2.47
2018-11-11T14:49:08.173Z,2.40
2018-11-11T14:54:11.809Z,2.57
2018-11-11T14:59:15.802Z,2.57
2018-11-11T15:04:21.600Z,2.40
2018-11-11T15:09:25.294Z,2.17
2018-11-11T15:14:28.821Z,2.00
2018-11-11T15:19:32.447Z,5.77
2018-11-11T15:24:35.529Z,2.60
2018-11-11T15:29:38.976Z,2.30
2018-11-11T15:34:42.473Z,2.77
2018-11-11T15:39:45.881Z,2.60
2018-11-11T15:44:49.181Z,2.43
2018-11-11T15:49:52.733Z,3.27
2018-11-11T15:54:56.253Z,3.13
2018-11-11T15:59:59.822Z,2.50
2018-11-11T16:05:03.855Z,2.70
2018-11-11T16:10:08.732Z,3.30
2018-11-11T16:15:18.451Z,14.10
2018-11-11T16:20:23.333Z,5.00
2018-11-11T16:25:27.016Z,4.67
2018-11-11T16:30:33.232Z,5.03
2018-11-11T16:35:42.504Z,7.33
2018-11-11T16:40:46.051Z,7.27
2018-11-11T16:45:49.540Z,8.73
2018-11-11T16:50:53.429Z,9.57
2018-11-11T16:55:56.749Z,11.23
2018-11-11T17:01:00.303Z,11.40
2018-11-11T17:06:05.236Z,6.90
2018-11-11T17:11:08.953Z,4.83
2018-11-11T17:16:20.898Z,11.07
2018-11-11T17:21:24.788Z,5.50
2018-11-11T17:26:28.564Z,5.67
2018-11-11T17:31:32.032Z,5.83
2018-11-11T17:36:36.326Z,6.70
2018-11-11T17:41:40.885Z,4.80
2018-11-11T17:46:44.592Z,5.60
2018-11-11T17:51:48.223Z,5.10
2018-11-11T17:56:52.294Z,4.83
2018-11-11T18:01:55.818Z,4.60
2018-11-11T18:06:59.651Z,4.40
2018-11-11T18:12:03.557Z,4.70
2018-11-11T18:17:07.276Z,5.30
2018-11-11T18:22:14.465Z,4.10
2018-11-11T18:27:19.121Z,4.43
2018-11-11T18:32:23.598Z,4.93
2018-11-11T18:37:27.572Z,5.30
2018-11-11T18:42:32.438Z,4.83
2018-11-11T18:47:36.988Z,4.30
2018-11-11T18:52:43.805Z,4.10
2018-11-11T18:57:47.961Z,4.97
2018-11-11T19:02:56.254Z,6.00
2018-11-11T19:08:03.554Z,5.77
2018-11-11T19:13:09.989Z,5.70
2018-11-11T19:18:14.180Z,4.97
2018-11-11T19:23:19.303Z,5.20
2018-11-11T19:28:24.802Z,4.57
2018-11-11T19:33:30.761Z,4.67
2018-11-11T19:38:34.790Z,7.30
2018-11-11T19:43:38.527Z,4.80
2018-11-11T19:48:42.938Z,4.30
2018-11-11T19:53:46.829Z,4.70
2018-11-11T19:58:50.695Z,4.93
2018-11-11T20:03:54.375Z,5.87
2018-11-11T20:08:58.855Z,5.00
2018-11-11T20:14:02.677Z,5.07
2018-11-11T20:19:06.493Z,5.00
2018-11-11T20:24:10.117Z,5.70
2018-11-11T20:29:13.907Z,5.40
2018-11-11T20:34:17.660Z,4.47
2018-11-11T20:39:21.676Z,5.10
2018-11-11T20:44:26.361Z,4.20
2018-11-11T20:49:30.461Z,4.43
2018-11-11T20:54:37.790Z,4.23
2018-11-11T20:59:41.723Z,4.27
2018-11-11T21:04:45.507Z,4.87
2018-11-11T21:09:49.228Z,4.70
2018-11-11T21:14:53.041Z,4.10
2018-11-11T21:19:56.458Z,4.20
2018-11-11T21:25:00.227Z,5.37
2018-11-11T21:30:04.000Z,3.90
2018-11-11T21:35:07.625Z,4.50
2018-11-11T21:40:13.750Z,3.90
2018-11-11T21:45:18.598Z,4.00
2018-11-11T21:50:23.270Z,5.53
2018-11-11T21:55:26.765Z,4.50
2018-11-11T22:00:30.311Z,3.60
2018-11-11T22:05:33.837Z,4.90
2018-11-11T22:10:37.444Z,4.17
2018-11-11T22:15:41.030Z,4.53
2018-11-11T22:20:44.677Z,4.30
2018-11-11T22:25:48.022Z,4.10
2018-11-11T22:30:51.503Z,4.00
2018-11-11T22:35:55.099Z,3.70
2018-11-11T22:40:58.911Z,4.17
2018-11-11T22:46:02.353Z,4.13
2018-11-11T22:51:06.030Z,3.43
2018-11-11T22:56:09.354Z,3.60
2018-11-11T23:01:18.125Z,3.60
2018-11-11T23:06:21.453Z,3.83
2018-11-11T23:11:26.557Z,3.50
2018-11-11T23:16:31.171Z,3.57
2018-11-11T23:21:36.228Z,3.30
2018-11-11T23:26:40.261Z,3.43
2018-11-11T23:31:44.528Z,3.80
2018-11-11T23:36:54.525Z,3.20
2018-11-11T23:42:13.266Z,2.80
2018-11-11T23:47:17.532Z,2.97
2018-11-11T23:52:23.036Z,3.20
2018-11-11T23:57:27.330Z,2.90
